Time;durP1;ratioP1;P1;durP2;ratioP2;P2;SDS_P1;SDS_P2;PMS_P1;PMS_P2;Temp;Humidity;BMP_temperature;BMP_pressure;BME280_temperature;BME280_humidity;BME280_pressure;Samples;Min_cycle;Max_cycle;Signal;HPM_P1;HPM_P2
2023/01/30 00:01:19;;;;;;;19.35;11.10;;;;;;;1.05;93.77;95139.53;5054866;28;20199;-84
2023/01/30 00:03:46;;;;;;;21.33;12.85;;;;;;;1.07;94.33;95136.91;5019438;28;20227;-84
2023/01/30 00:06:13;;;;;;;22.00;11.95;;;;;;;0.93;93.55;95129.75;5054865;28;20546;-82
2023/01/30 00:08:40;;;;;;;20.42;12.85;;;;;;;0.98;94.34;95130.41;5054756;28;20202;-83
2023/01/30 00:11:10;;;;;;;19.63;12.15;;;;;;;0.98;94.23;95137.31;5054329;28;20206;-84
2023/01/30 00:13:38;;;;;;;19.33;12.20;;;;;;;0.97;93.38;95130.47;5054519;28;20210;-84
2023/01/30 00:16:05;;;;;;;20.40;11.23;;;;;;;0.87;94.01;95110.22;5054025;28;20689;-83
2023/01/30 00:18:32;;;;;;;19.05;11.95;;;;;;;0.96;95.04;95127.03;5054299;28;20604;-83
2023/01/30 00:21:02;;;;;;;24.67;11.25;;;;;;;0.78;92.97;95128.66;5054210;28;20619;-83
2023/01/30 00:23:32;;;;;;;24.20;12.63;;;;;;;0.71;92.81;95131.56;5054146;28;20225;-84
2023/01/30 00:25:59;;;;;;;20.08;11.95;;;;;;;0.75;93.79;95135.72;5018236;28;20234;-82
2023/01/30 00:28:27;;;;;;;16.77;10.90;;;;;;;0.75;93.28;95130.53;5053916;28;20202;-84
2023/01/30 00:30:56;;;;;;;15.80;9.15;;;;;;;0.68;93.10;95132.56;5054100;28;20202;-84
2023/01/30 00:33:24;;;;;;;19.15;11.90;;;;;;;0.72;94.58;95128.09;5053739;28;20199;-83
2023/01/30 00:35:53;;;;;;;18.42;10.85;;;;;;;0.68;93.25;95139.47;5053853;28;20533;-83
2023/01/30 00:38:20;;;;;;;22.08;11.70;;;;;;;0.71;94.65;95136.75;5054068;28;20207;-83
2023/01/30 00:40:48;;;;;;;20.17;12.48;;;;;;;0.66;93.83;95133.53;5053932;28;20202;-84
2023/01/30 00:48:48;;;;;;;24.73;12.88;;;;;;;0.86;94.26;95118.84;4992113;28;20259;-83
2023/01/30 00:51:15;;;;;;;21.73;12.00;;;;;;;0.87;94.81;95115.38;4959386;28;20220;-83
2023/01/30 00:53:42;;;;;;;20.80;11.85;;;;;;;0.83;93.87;95116.38;4959671;28;20244;-83
2023/01/30 00:56:08;;;;;;;23.10;13.07;;;;;;;0.80;94.38;95113.94;4991946;28;20204;-83
2023/01/30 00:58:35;;;;;;;24.50;13.02;;;;;;;0.69;94.48;95108.41;4990984;28;20734;-83
2023/01/30 01:01:04;;;;;;;25.80;11.82;;;;;;;0.65;94.83;95112.03;4992195;28;20224;-83
2023/01/30 01:03:30;;;;;;;20.30;11.85;;;;;;;0.51;95.21;95106.59;4991712;28;20229;-83
2023/01/30 01:05:57;;;;;;;19.98;11.70;;;;;;;0.45;95.45;95110.28;4992092;28;20275;-83
2023/01/30 01:08:24;;;;;;;24.90;12.43;;;;;;;0.43;96.53;95111.25;4991880;28;20234;-83
2023/01/30 01:10:51;;;;;;;22.73;12.85;;;;;;;0.42;96.57;95112.16;4959202;28;20204;-84
2023/01/30 01:13:17;;;;;;;25.08;12.38;;;;;;;0.35;96.37;95111.56;4991551;28;20296;-83
2023/01/30 01:15:44;;;;;;;17.38;11.52;;;;;;;0.41;96.78;95111.31;4992224;28;20263;-83
2023/01/30 01:18:12;;;;;;;18.17;13.68;;;;;;;0.39;96.15;95114.88;4992746;28;20205;-82
2023/01/30 01:20:39;;;;;;;21.38;11.50;;;;;;;0.32;96.16;95100.53;4994376;28;20201;-83
2023/01/30 01:23:06;;;;;;;22.13;11.43;;;;;;;0.44;97.52;95106.03;5020551;28;20633;-83
2023/01/30 01:25:33;;;;;;;15.40;9.75;;;;;;;0.30;97.10;95095.44;5053937;28;20237;-83
2023/01/30 01:28:00;;;;;;;21.05;12.35;;;;;;;0.44;97.67;95094.84;5020062;28;20194;-83
2023/01/30 01:30:27;;;;;;;23.88;11.65;;;;;;;0.50;96.97;95105.75;5056714;28;20531;-83
2023/01/30 01:32:54;;;;;;;26.95;13.80;;;;;;;0.48;97.01;95102.41;5054665;28;20199;-84
2023/01/30 01:35:22;;;;;;;29.67;15.00;;;;;;;0.47;96.39;95108.47;5003050;28;20207;-84
2023/01/30 01:37:53;;;;;;;21.50;12.52;;;;;;;0.42;96.63;95100.09;5055087;28;20206;-83
2023/01/30 01:43:16;;;;;;;24.45;11.65;;;;;;;0.50;96.24;95092.00;4972780;28;20272;-83
2023/01/30 01:45:45;;;;;;;32.40;13.63;;;;;;;0.61;96.19;95097.56;4977507;28;20236;-84
2023/01/30 01:48:17;;;;;;;20.33;12.50;;;;;;;0.66;95.55;95107.69;4972430;28;20724;-84
2023/01/30 01:50:50;;;;;;;28.90;14.25;;;;;;;0.47;96.04;95097.31;4955681;28;20661;-83
2023/01/30 01:53:20;;;;;;;25.17;12.02;;;;;;;0.49;95.72;95098.91;4972085;28;20261;-83
2023/01/30 01:55:52;;;;;;;20.08;10.80;;;;;;;0.56;95.57;95102.91;4971659;28;20206;-84
2023/01/30 01:58:23;;;;;;;19.85;10.40;;;;;;;0.57;95.36;95096.84;4971429;28;20637;-84
2023/01/30 02:00:50;;;;;;;17.90;11.10;;;;;;;0.50;95.41;95097.19;4971317;28;20252;-84
2023/01/30 02:03:23;;;;;;;16.65;10.40;;;;;;;0.50;94.73;95099.75;4971176;28;20225;-83
2023/01/30 02:05:57;;;;;;;20.05;10.32;;;;;;;0.46;95.42;95106.78;4971178;28;20650;-84
2023/01/30 02:08:27;;;;;;;20.00;10.30;;;;;;;0.45;95.48;95106.84;4970928;28;20205;-84
2023/01/30 02:10:59;;;;;;;17.80;10.48;;;;;;;0.40;95.53;95114.81;4971194;28;20202;-83
2023/01/30 02:13:27;;;;;;;22.95;11.52;;;;;;;0.34;95.20;95102.16;4971105;28;20206;-84
2023/01/30 02:15:57;;;;;;;20.70;10.40;;;;;;;0.30;95.40;95103.19;4971249;28;20755;-83
2023/01/30 02:18:24;;;;;;;19.17;11.40;;;;;;;0.23;96.05;95112.06;4990295;28;20206;-83
2023/01/30 02:21:21;;;;;;;15.82;9.35;;;;;;;0.18;96.13;95103.69;5051906;28;20206;-83
2023/01/30 02:24:20;;;;;;;25.60;11.80;;;;;;;0.18;96.57;95099.38;4970899;28;20312;-82
2023/01/30 02:27:18;;;;;;;20.10;11.73;;;;;;;0.14;96.34;95099.56;4971283;28;20720;-83
2023/01/30 02:30:22;;;;;;;17.58;9.70;;;;;;;0.12;96.47;95097.03;4894775;29;20204;-83
2023/01/30 02:33:02;;;;;;;15.60;10.80;;;;;;;0.12;96.52;95093.63;4868910;29;20208;-83
2023/01/30 02:35:35;;;;;;;18.20;10.60;;;;;;;0.09;96.55;95093.75;4848010;29;20200;-82
2023/01/30 02:38:16;;;;;;;21.00;10.77;;;;;;;0.12;97.24;95101.38;4894862;29;20248;-82
2023/01/30 02:40:53;;;;;;;25.58;12.10;;;;;;;0.23;96.74;95096.59;4894677;29;20260;-83
2023/01/30 02:43:28;;;;;;;19.10;11.80;;;;;;;0.33;96.40;95086.75;4894878;29;20203;-83
2023/01/30 02:46:01;;;;;;;24.63;11.85;;;;;;;0.39;95.82;95089.06;4894678;29;20233;-84
2023/01/30 02:48:36;;;;;;;20.17;10.88;;;;;;;0.42;95.55;95084.59;4894993;29;20212;-84
2023/01/30 02:51:07;;;;;;;18.60;9.52;;;;;;;0.48;95.21;95081.75;4894401;29;20209;-83
2023/01/30 02:53:34;;;;;;;18.25;10.00;;;;;;;0.58;95.14;95083.06;4894620;29;20349;-83
2023/01/30 02:56:01;;;;;;;20.33;11.48;;;;;;;0.54;94.16;95080.66;4894621;29;20205;-83
2023/01/30 02:58:38;;;;;;;19.70;11.10;;;;;;;0.55;93.33;95090.91;4894612;29;20204;-83
2023/01/30 03:01:39;;;;;;;15.57;9.93;;;;;;;0.57;93.62;95083.09;4950496;28;20209;-83
2023/01/30 03:04:30;;;;;;;19.25;11.10;;;;;;;0.54;93.54;95084.06;4931972;29;20710;-84
2023/01/30 03:07:12;;;;;;;16.17;10.85;;;;;;;0.61;93.76;95087.25;4957011;28;20676;-83
2023/01/30 03:09:48;;;;;;;23.58;12.15;;;;;;;0.60;92.74;95086.41;4970741;28;20206;-83
2023/01/30 03:12:22;;;;;;;15.85;9.60;;;;;;;0.57;92.64;95089.09;4970734;28;20233;-83
2023/01/30 03:14:54;;;;;;;16.50;10.75;;;;;;;0.52;92.74;95085.88;4970556;28;20220;-84
2023/01/30 03:17:25;;;;;;;18.20;9.75;;;;;;;0.58;93.38;95080.47;4970563;28;20685;-83
2023/01/30 03:19:55;;;;;;;18.48;11.27;;;;;;;0.70;94.38;95073.09;4970759;28;20214;-84
2023/01/30 03:22:23;;;;;;;24.25;12.18;;;;;;;0.75;93.48;95069.41;4973929;28;20205;-82
2023/01/30 03:24:51;;;;;;;22.05;11.45;;;;;;;0.74;93.26;95069.47;4977946;28;20248;-83
2023/01/30 03:27:19;;;;;;;16.73;10.05;;;;;;;0.70;92.86;95065.34;4993342;28;20558;-83
2023/01/30 03:29:46;;;;;;;17.45;10.43;;;;;;;0.72;93.29;95056.63;4993781;28;20232;-83
2023/01/30 03:32:13;;;;;;;15.85;9.77;;;;;;;0.68;92.75;95057.66;4993329;28;20205;-83
2023/01/30 03:34:40;;;;;;;14.88;10.02;;;;;;;0.69;92.62;95058.50;4961115;28;20594;-83
2023/01/30 03:37:09;;;;;;;14.85;10.05;;;;;;;0.67;92.88;95050.81;4993422;28;20758;-83
2023/01/30 03:39:36;;;;;;;17.80;9.77;;;;;;;0.58;92.02;95046.91;4993299;28;20255;-84
2023/01/30 03:42:03;;;;;;;22.45;10.90;;;;;;;0.70;92.78;95050.69;5031581;28;20618;-83
2023/01/30 03:44:30;;;;;;;16.05;9.43;;;;;;;0.71;92.00;95054.09;4984103;28;20231;-84
2023/01/30 03:46:57;;;;;;;17.00;10.13;;;;;;;0.61;91.62;95056.25;5034741;28;20654;-82
2023/01/30 03:49:23;;;;;;;18.13;8.95;;;;;;;0.48;91.73;95057.69;5034982;28;20478;-83
2023/01/30 03:51:50;;;;;;;15.48;9.60;;;;;;;0.53;92.98;95063.47;5034951;28;20647;-84
2023/01/30 03:54:19;;;;;;;16.65;10.32;;;;;;;0.59;92.75;95050.34;5034881;28;20300;-83
2023/01/30 03:56:45;;;;;;;26.20;10.00;;;;;;;0.57;92.26;95052.94;5034680;28;20203;-83
2023/01/30 03:59:12;;;;;;;15.35;9.65;;;;;;;0.57;92.73;95055.53;5034545;28;20773;-83
2023/01/30 04:01:39;;;;;;;22.08;9.80;;;;;;;0.65;93.86;95049.22;5034453;28;20199;-83
2023/01/30 04:04:06;;;;;;;29.30;11.52;;;;;;;0.59;92.07;95045.16;5034434;28;20231;-83
2023/01/30 04:06:33;;;;;;;20.30;10.50;;;;;;;0.61;91.74;95051.09;5034373;28;20279;-83
2023/01/30 04:09:00;;;;;;;30.75;14.88;;;;;;;0.55;91.52;95043.59;5034400;28;20199;-83
2023/01/30 04:11:28;;;;;;;27.00;14.63;;;;;;;0.66;92.21;95038.00;5034227;28;20664;-84
2023/01/30 04:13:55;;;;;;;22.45;11.50;;;;;;;0.67;92.41;95044.81;5034247;28;20203;-83
2023/01/30 04:16:23;;;;;;;17.80;10.77;;;;;;;0.68;92.55;95041.34;5034630;28;20196;-83
2023/01/30 04:18:50;;;;;;;21.85;12.40;;;;;;;0.73;92.38;95044.56;5034414;28;20207;-84
2023/01/30 04:21:17;;;;;;;17.98;11.63;;;;;;;0.65;92.17;95049.22;5034124;28;20569;-83
2023/01/30 04:23:44;;;;;;;19.40;10.75;;;;;;;0.57;92.09;95042.63;5033878;28;20575;-83
2023/01/30 04:26:12;;;;;;;20.95;11.35;;;;;;;0.52;92.88;95051.47;5049508;28;20226;-81
2023/01/30 04:28:41;;;;;;;17.95;11.38;;;;;;;0.37;93.61;95037.50;5053512;28;20458;-85
2023/01/30 04:31:08;;;;;;;18.08;10.70;;;;;;;0.42;93.13;95045.03;5054030;28;20202;-83
2023/01/30 04:33:35;;;;;;;22.23;12.15;;;;;;;0.43;93.33;95051.88;5053916;28;20202;-84
2023/01/30 04:36:04;;;;;;;17.17;10.68;;;;;;;0.33;93.07;95043.72;5054019;28;20294;-82
2023/01/30 04:38:32;;;;;;;20.15;10.85;;;;;;;0.18;94.04;95042.59;5053653;28;20252;-81
2023/01/30 04:40:59;;;;;;;21.27;10.90;;;;;;;0.27;94.94;95041.38;5053657;28;20628;-82
2023/01/30 04:43:28;;;;;;;18.25;10.80;;;;;;;0.27;94.83;95046.53;5053967;28;20563;-81
2023/01/30 04:45:56;;;;;;;19.08;10.90;;;;;;;0.27;94.48;95042.19;5053506;28;20219;-82
2023/01/30 04:48:25;;;;;;;24.73;14.00;;;;;;;0.33;95.18;95033.38;5053500;28;20206;-82
2023/01/30 04:50:54;;;;;;;20.58;12.50;;;;;;;0.31;95.14;95032.63;5001921;28;20203;-81
2023/01/30 04:53:21;;;;;;;26.73;11.13;;;;;;;0.36;95.37;95035.00;5053690;28;20210;-81
2023/01/30 04:55:48;;;;;;;15.43;10.05;;;;;;;0.28;94.23;95024.97;5053934;28;20206;-82
2023/01/30 04:58:15;;;;;;;21.77;11.43;;;;;;;0.26;94.46;95027.63;5053721;28;20210;-83
2023/01/30 05:00:42;;;;;;;21.55;11.55;;;;;;;0.19;94.42;95026.22;5053713;28;20203;-84
2023/01/30 05:03:10;;;;;;;20.15;12.40;;;;;;;0.22;94.81;95017.50;5053388;28;20615;-82
2023/01/30 05:05:37;;;;;;;22.35;11.63;;;;;;;0.27;95.18;95020.72;5018327;28;20234;-84
2023/01/30 05:08:04;;;;;;;20.95;12.15;;;;;;;0.16;94.83;95015.19;5053454;28;20641;-82
2023/01/30 05:10:31;;;;;;;17.38;11.18;;;;;;;0.12;95.80;95018.81;5019017;28;20661;-83
2023/01/30 05:13:02;;;;;;;19.52;10.80;;;;;;;0.02;95.99;95018.38;5054662;28;20195;-83
2023/01/30 05:15:29;;;;;;;24.50;10.95;;;;;;;0.02;96.32;95014.94;5054243;28;20206;-83
2023/01/30 05:17:55;;;;;;;20.83;12.73;;;;;;;0.02;97.11;95015.78;5054314;28;20187;-83
2023/01/30 05:20:24;;;;;;;20.50;11.63;;;;;;;0.01;97.16;95015.84;5053997;28;20403;-83
2023/01/30 05:22:50;;;;;;;21.27;10.57;;;;;;;-0.12;96.66;95012.94;5053961;28;20202;-84
2023/01/30 05:25:17;;;;;;;18.05;11.32;;;;;;;-0.11;97.16;95025.75;5049193;28;20255;-83
2023/01/30 05:27:44;;;;;;;18.83;11.35;;;;;;;-0.10;97.00;95036.91;5003130;28;20211;-84
2023/01/30 05:30:11;;;;;;;21.60;11.60;;;;;;;-0.04;97.47;95029.75;5037900;28;20188;-84
2023/01/30 05:32:38;;;;;;;27.15;13.07;;;;;;;-0.01;98.14;95019.31;4983655;28;20254;-84
2023/01/30 05:35:06;;;;;;;23.58;12.40;;;;;;;0.16;98.13;95023.75;5035810;28;20208;-89
2023/01/30 05:37:36;;;;;;;24.65;12.18;;;;;;;0.25;97.58;95025.09;5035139;28;20207;-84
2023/01/30 05:40:03;;;;;;;22.48;13.20;;;;;;;0.26;96.67;95032.78;5034436;28;20294;-82
2023/01/30 05:42:30;;;;;;;24.30;12.07;;;;;;;0.24;96.58;95021.69;5033882;28;20265;-81
2023/01/30 05:44:57;;;;;;;24.67;13.60;;;;;;;0.12;97.24;95026.53;4982210;28;20508;-83
2023/01/30 05:47:24;;;;;;;24.75;14.15;;;;;;;0.07;97.39;95019.00;4983404;28;20211;-83
2023/01/30 05:49:51;;;;;;;26.73;15.95;;;;;;;0.11;97.81;95030.88;5033505;28;20206;-82
2023/01/30 05:52:17;;;;;;;29.15;13.02;;;;;;;0.10;97.93;95033.50;5034778;28;20555;-82
2023/01/30 05:54:46;;;;;;;21.67;11.18;;;;;;;-0.02;97.95;95033.09;5033269;28;20199;-83
2023/01/30 05:57:13;;;;;;;21.30;12.30;;;;;;;-0.03;98.54;95028.84;5033867;28;20204;-83
2023/01/30 05:59:39;;;;;;;22.40;11.70;;;;;;;-0.05;98.72;95030.66;5033598;28;20183;-83
2023/01/30 06:02:06;;;;;;;27.13;12.23;;;;;;;-0.03;99.02;95039.16;5033682;28;20188;-84
2023/01/30 06:04:34;;;;;;;24.58;12.65;;;;;;;0.07;99.18;95033.66;5033263;28;20226;-84
2023/01/30 06:07:01;;;;;;;24.33;13.48;;;;;;;0.02;98.93;95035.59;5033508;28;20238;-83
2023/01/30 06:09:28;;;;;;;33.20;14.55;;;;;;;0.12;98.95;95034.28;5033583;28;20207;-82
2023/01/30 06:11:56;;;;;;;25.55;12.77;;;;;;;0.15;99.28;95026.41;5033913;28;20241;-81
2023/01/30 06:14:23;;;;;;;26.58;13.90;;;;;;;0.24;99.20;95031.19;5046869;28;20662;-79
2023/01/30 06:16:50;;;;;;;28.33;14.82;;;;;;;0.24;99.31;95026.84;5046941;28;20562;-81
2023/01/30 06:19:16;;;;;;;30.38;14.40;;;;;;;0.20;98.79;95029.63;5034062;28;20214;-82
2023/01/30 06:21:43;;;;;;;28.42;13.18;;;;;;;0.22;98.43;95025.25;5053050;28;20191;-80
2023/01/30 06:24:10;;;;;;;32.33;17.27;;;;;;;0.17;98.83;95020.28;5033249;28;20202;-81
2023/01/30 06:26:37;;;;;;;37.72;20.25;;;;;;;0.21;100.00;95015.81;5033431;28;20250;-87
2023/01/30 06:29:05;;;;;;;36.13;18.92;;;;;;;0.22;99.60;95022.66;5044091;28;20211;-83
2023/01/30 06:31:32;;;;;;;30.25;16.95;;;;;;;0.16;99.03;95015.19;5048994;28;20194;-86
2023/01/30 06:33:58;;;;;;;36.95;16.95;;;;;;;0.13;98.85;95012.75;5036748;28;20195;-80
2023/01/30 06:36:25;;;;;;;32.58;16.85;;;;;;;0.13;99.46;95023.06;5038408;28;20199;-82
2023/01/30 06:38:52;;;;;;;29.85;13.48;;;;;;;0.07;99.71;95005.25;5012639;28;20203;-82
2023/01/30 06:41:19;;;;;;;27.67;15.60;;;;;;;0.16;99.23;95013.44;5034759;28;20230;-82
2023/01/30 06:43:46;;;;;;;32.72;17.80;;;;;;;0.15;99.21;95024.66;5042996;28;20207;-80
2023/01/30 06:46:14;;;;;;;34.90;15.65;;;;;;;0.07;98.64;95023.31;5035244;28;20226;-82
2023/01/30 06:48:41;;;;;;;37.22;17.35;;;;;;;-0.03;100.00;95030.59;5017860;28;20199;-82
2023/01/30 06:51:08;;;;;;;37.72;18.85;;;;;;;0.04;100.00;95020.88;5044897;28;20207;-81
2023/01/30 06:53:34;;;;;;;44.70;20.85;;;;;;;0.03;100.00;95032.09;5043656;28;20210;-82
2023/01/30 06:56:01;;;;;;;63.92;27.75;;;;;;;0.03;99.66;95037.25;5041892;28;20218;-81
2023/01/30 06:58:28;;;;;;;49.92;26.98;;;;;;;0.00;99.08;95027.91;5054259;28;20443;-82
2023/01/30 07:00:55;;;;;;;38.30;20.42;;;;;;;-0.01;98.29;95031.34;5053944;28;20209;-83
2023/01/30 07:03:24;;;;;;;41.45;20.00;;;;;;;0.03;99.28;95045.84;5036968;28;20210;-82
2023/01/30 07:05:51;;;;;;;47.05;24.45;;;;;;;0.02;99.83;95046.72;5036350;28;20234;-83
2023/01/30 07:08:18;;;;;;;39.05;21.38;;;;;;;0.04;99.09;95044.09;5046249;28;20604;-83
2023/01/30 07:10:45;;;;;;;47.08;21.95;;;;;;;0.02;99.07;95046.72;5040779;28;20675;-82
2023/01/30 07:13:12;;;;;;;38.63;18.85;;;;;;;0.01;99.04;95044.22;5046693;28;20196;-83
2023/01/30 07:15:39;;;;;;;41.38;21.17;;;;;;;0.25;100.00;95043.16;5058383;28;20206;-85
2023/01/30 07:18:06;;;;;;;37.90;20.05;;;;;;;0.29;100.00;95049.91;5047386;28;20620;-86
2023/01/30 07:20:34;;;;;;;36.95;20.08;;;;;;;0.23;99.25;95048.41;5038131;28;20203;-85
2023/01/30 07:23:01;;;;;;;35.60;18.98;;;;;;;0.17;98.63;95055.56;5014508;28;20211;-85
2023/01/30 07:25:29;;;;;;;39.00;19.77;;;;;;;0.25;100.00;95058.66;5046154;28;20234;-86
2023/01/30 07:27:58;;;;;;;33.03;17.20;;;;;;;0.25;99.25;95058.66;5056532;28;20187;-86
2023/01/30 07:30:25;;;;;;;31.52;18.02;;;;;;;0.30;99.21;95057.59;5056536;28;20225;-86
2023/01/30 07:32:53;;;;;;;52.65;26.67;;;;;;;0.18;98.96;95062.41;5039179;28;20732;-86
2023/01/30 07:35:20;;;;;;;37.75;19.80;;;;;;;0.21;99.07;95054.53;5044434;28;20246;-85
2023/01/30 07:37:49;;;;;;;32.33;19.45;;;;;;;0.13;99.40;95056.59;5056400;28;20214;-84
2023/01/30 07:40:17;;;;;;;37.25;18.10;;;;;;;0.10;99.80;95056.72;5055820;28;20210;-84
2023/01/30 07:42:44;;;;;;;44.75;19.77;;;;;;;0.07;99.83;95062.84;5056211;28;20195;-83
2023/01/30 07:45:11;;;;;;;28.98;16.45;;;;;;;0.16;100.00;95066.78;5056339;28;20210;-84
2023/01/30 07:47:38;;;;;;;29.58;17.00;;;;;;;0.04;100.00;95070.72;5005199;28;20222;-83
2023/01/30 07:50:06;;;;;;;36.70;15.95;;;;;;;0.04;100.00;95057.00;5038262;28;20206;-83
2023/01/30 07:52:33;;;;;;;29.00;15.70;;;;;;;0.08;100.00;95061.13;5051804;28;20199;-83
2023/01/30 07:55:03;;;;;;;29.02;18.00;;;;;;;0.13;100.00;95062.59;5043035;28;20198;-83
2023/01/30 07:57:30;;;;;;;34.20;16.67;;;;;;;0.21;100.00;95059.69;5048197;28;20202;-83
2023/01/30 07:59:57;;;;;;;26.23;14.57;;;;;;;0.27;100.00;95042.19;5051402;28;20202;-84
2023/01/30 08:02:24;;;;;;;32.67;17.35;;;;;;;0.24;100.00;95044.91;5019458;28;20199;-83
2023/01/30 08:04:50;;;;;;;30.30;17.17;;;;;;;0.24;100.00;95037.16;5054295;28;20203;-83
2023/01/30 08:07:18;;;;;;;35.97;18.63;;;;;;;0.30;99.63;95034.34;5054227;28;20223;-83
2023/01/30 08:09:44;;;;;;;34.17;17.45;;;;;;;0.37;98.92;95032.34;5054683;28;20465;-83
2023/01/30 08:12:13;;;;;;;36.28;21.25;;;;;;;0.41;98.10;95035.63;5054662;28;20198;-83
2023/01/30 08:14:39;;;;;;;43.00;21.25;;;;;;;0.39;97.49;95045.19;5054132;28;20210;-83
2023/01/30 08:17:06;;;;;;;43.80;24.52;;;;;;;0.34;97.08;95042.81;5054609;28;20187;-83
2023/01/30 08:19:33;;;;;;;48.88;24.30;;;;;;;0.35;96.44;95034.16;5054444;28;20200;-84
2023/01/30 08:22:00;;;;;;;44.55;24.60;;;;;;;0.41;97.37;95041.63;5054341;28;20199;-83
2023/01/30 08:24:27;;;;;;;28.63;16.27;;;;;;;0.46;97.71;95037.09;5053847;28;20230;-83
2023/01/30 08:26:53;;;;;;;47.78;24.35;;;;;;;0.44;97.29;95036.34;5054233;28;20216;-84
2023/01/30 08:29:22;;;;;;;34.90;18.30;;;;;;;0.53;96.66;95037.66;5053611;28;20210;-83
2023/01/30 08:31:49;;;;;;;44.83;20.95;;;;;;;0.67;97.51;95029.34;5054018;28;20199;-83
2023/01/30 08:34:15;;;;;;;35.53;18.27;;;;;;;0.69;96.50;95027.53;5053976;28;20606;-83
2023/01/30 08:36:45;;;;;;;37.10;18.05;;;;;;;0.70;95.34;95031.78;5019113;28;20545;-83
2023/01/30 08:39:12;;;;;;;36.00;19.08;;;;;;;0.68;94.22;95029.25;5019638;28;20209;-82
2023/01/30 08:41:41;;;;;;;40.72;19.23;;;;;;;0.72;94.32;95022.22;5054180;28;20238;-83
2023/01/30 08:44:08;;;;;;;41.03;22.63;;;;;;;0.77;94.03;95015.94;5053715;28;20219;-83
2023/01/30 08:46:37;;;;;;;32.88;17.92;;;;;;;0.68;93.40;95003.44;5053816;28;20233;-83
2023/01/30 08:49:04;;;;;;;29.23;18.48;;;;;;;0.81;94.51;95007.13;5053632;28;20207;-83
2023/01/30 08:51:31;;;;;;;33.03;18.55;;;;;;;0.87;93.90;95016.38;5018594;28;20206;-83
2023/01/30 08:53:58;;;;;;;32.53;17.48;;;;;;;0.91;94.56;95012.75;5053522;28;20207;-83
2023/01/30 08:56:25;;;;;;;33.83;19.52;;;;;;;0.83;92.55;95004.47;5053651;28;20200;-83
2023/01/30 08:58:51;;;;;;;40.00;21.58;;;;;;;0.83;92.00;95001.91;5053738;28;20213;-84
2023/01/30 09:01:18;;;;;;;29.83;15.45;;;;;;;0.90;92.97;95000.75;5018521;28;20199;-83
2023/01/30 09:03:46;;;;;;;32.38;16.33;;;;;;;0.96;94.48;95000.44;5053575;28;20261;-82
2023/01/30 09:06:13;;;;;;;27.25;16.63;;;;;;;0.94;90.97;95007.44;5018144;28;20226;-83
2023/01/30 09:08:43;;;;;;;23.95;14.95;;;;;;;0.95;89.84;94996.19;5053107;28;20203;-83
2023/01/30 09:11:11;;;;;;;30.42;18.20;;;;;;;1.06;90.28;94988.78;5053100;28;20203;-83
2023/01/30 09:13:42;;;;;;;22.35;12.35;;;;;;;1.17;90.21;94988.28;5053053;28;20199;-83
2023/01/30 09:16:09;;;;;;;31.90;16.73;;;;;;;1.21;90.81;94980.31;5052825;28;20711;-84
2023/01/30 09:18:38;;;;;;;28.08;15.30;;;;;;;1.39;95.35;94981.19;5052165;28;20207;-83
2023/01/30 09:21:07;;;;;;;20.95;12.23;;;;;;;1.28;88.00;94980.88;5052870;28;20626;-83
2023/01/30 09:23:34;;;;;;;23.25;12.82;;;;;;;1.26;87.49;94982.69;5052917;28;20237;-82
2023/01/30 09:26:01;;;;;;;22.15;12.27;;;;;;;1.22;86.39;94982.00;5052882;28;20535;-83
2023/01/30 09:28:30;;;;;;;21.55;11.80;;;;;;;1.25;85.97;94988.78;5052874;28;20206;-83
2023/01/30 09:30:57;;;;;;;26.95;13.95;;;;;;;1.27;86.39;94983.53;5053059;28;20225;-83
2023/01/30 09:33:24;;;;;;;32.77;15.53;;;;;;;1.36;86.48;94976.16;5052517;28;20227;-83
2023/01/30 09:35:52;;;;;;;26.27;14.00;;;;;;;1.31;86.25;94983.31;5053040;28;20429;-83
2023/01/30 09:38:21;;;;;;;25.10;13.63;;;;;;;1.22;85.90;94984.59;5052682;28;20207;-83
2023/01/30 09:41:14;;;;;;;25.73;14.48;;;;;;;1.22;85.60;94981.16;5052818;28;20237;-83
2023/01/30 09:44:05;;;;;;;29.33;14.63;;;;;;;1.17;86.86;94978.78;4952581;29;20206;-83
2023/01/30 09:46:41;;;;;;;27.85;14.98;;;;;;;1.03;88.30;94972.59;4952182;29;20230;-83
2023/01/30 09:49:25;;;;;;;54.20;24.75;;;;;;;1.09;91.24;94967.13;4952425;29;20709;-83
2023/01/30 09:52:02;;;;;;;34.75;15.93;;;;;;;1.15;89.99;94972.84;4953287;29;20253;-83
2023/01/30 09:54:34;;;;;;;33.63;16.88;;;;;;;1.20;90.64;94965.72;4952685;29;20200;-83
2023/01/30 09:57:11;;;;;;;31.47;17.03;;;;;;;1.26;89.30;94956.00;4953116;29;20680;-83
2023/01/30 09:59:48;;;;;;;27.80;13.45;;;;;;;1.25;88.13;94950.00;4952733;29;20446;-83
2023/01/30 10:02:38;;;;;;;27.55;14.60;;;;;;;1.19;89.23;94958.88;4952054;29;20205;-83
2023/01/30 10:05:06;;;;;;;22.88;11.95;;;;;;;1.07;89.50;94954.28;4952596;29;20313;-83
2023/01/30 10:07:47;;;;;;;20.33;13.13;;;;;;;1.09;90.67;94949.88;4920581;29;20325;-83
2023/01/30 10:10:22;;;;;;;18.05;9.32;;;;;;;1.08;90.67;94942.19;4956197;29;20209;-84
2023/01/30 10:13:02;;;;;;;28.83;15.05;;;;;;;1.16;91.14;94935.78;4953090;29;20216;-83
2023/01/30 10:15:40;;;;;;;29.77;16.80;;;;;;;1.36;90.98;94931.38;4953347;29;20720;-82
2023/01/30 10:18:19;;;;;;;48.33;23.58;;;;;;;1.49;90.97;94927.31;4952924;29;20448;-82
2023/01/30 10:20:56;;;;;;;28.08;14.75;;;;;;;1.43;90.36;94915.50;5006358;28;20206;-83
2023/01/30 10:23:49;;;;;;;30.27;17.20;;;;;;;1.36;89.08;94906.38;5053411;28;20206;-83
2023/01/30 10:26:20;;;;;;;21.80;11.70;;;;;;;1.32;91.55;94911.75;5053696;28;20513;-83
2023/01/30 10:28:57;;;;;;;17.38;10.80;;;;;;;1.15;90.38;94913.41;5053182;28;20665;-82
2023/01/30 10:31:28;;;;;;;23.75;11.02;;;;;;;1.02;91.15;94909.75;5059069;28;20205;-83
2023/01/30 10:34:00;;;;;;;21.40;12.00;;;;;;;0.93;91.94;94892.94;5059828;28;20203;-83
2023/01/30 10:36:36;;;;;;;28.20;16.38;;;;;;;0.96;92.37;94889.38;5060183;28;20202;-83
2023/01/30 10:39:09;;;;;;;19.00;12.57;;;;;;;0.98;93.33;94882.38;5059084;28;20668;-83
2023/01/30 10:41:44;;;;;;;27.52;14.60;;;;;;;0.98;91.51;94890.13;5059264;28;20258;-83
2023/01/30 10:44:13;;;;;;;22.92;14.63;;;;;;;1.03;92.26;94877.81;5059672;28;20210;-83
2023/01/30 10:46:55;;;;;;;25.73;13.50;;;;;;;1.01;90.93;94871.06;5058914;28;20218;-82
2023/01/30 10:49:36;;;;;;;25.60;14.13;;;;;;;0.96;90.93;94860.13;5060004;28;20224;-82
2023/01/30 10:52:19;;;;;;;28.67;14.73;;;;;;;1.04;91.11;94861.41;5059736;28;20198;-83
2023/01/30 10:54:55;;;;;;;25.25;13.82;;;;;;;0.95;90.11;94855.88;5058907;28;20213;-82
2023/01/30 10:57:31;;;;;;;24.02;15.27;;;;;;;0.99;93.10;94845.31;5059076;28;20208;-83
2023/01/30 11:00:03;;;;;;;28.27;14.02;;;;;;;1.07;91.92;94848.34;5059617;28;20293;-84
2023/01/30 11:02:39;;;;;;;29.95;17.45;;;;;;;1.08;91.46;94833.69;5058505;28;20204;-82
2023/01/30 11:05:14;;;;;;;25.60;13.60;;;;;;;1.16;92.07;94829.81;5059108;28;20672;-82
2023/01/30 11:07:43;;;;;;;21.73;12.95;;;;;;;1.21;89.48;94830.44;5058407;28;20230;-82
2023/01/30 11:10:16;;;;;;;40.67;18.73;;;;;;;1.28;88.86;94817.19;5059204;28;20221;-82
2023/01/30 11:12:45;;;;;;;35.90;18.38;;;;;;;1.36;88.30;94815.06;5059144;28;20262;-83
2023/01/30 11:15:12;;;;;;;27.65;14.25;;;;;;;1.36;88.86;94812.47;5024243;28;20203;-83
2023/01/30 11:17:41;;;;;;;31.50;16.38;;;;;;;1.32;89.72;94808.38;5059159;28;20203;-83
2023/01/30 11:20:14;;;;;;;36.50;18.13;;;;;;;1.41;89.25;94811.31;5058775;28;20238;-83
2023/01/30 11:22:46;;;;;;;52.13;25.85;;;;;;;1.60;89.34;94800.88;5058664;28;20312;-83
2023/01/30 11:25:16;;;;;;;43.08;19.55;;;;;;;1.48;86.55;94793.78;5058733;28;20689;-82
2023/01/30 11:27:53;;;;;;;24.90;14.13;;;;;;;1.56;88.07;94783.88;5058938;28;20226;-83
2023/01/30 11:30:26;;;;;;;35.50;20.55;;;;;;;1.52;86.85;94788.38;5058333;28;20230;-82
2023/01/30 11:33:07;;;;;;;30.00;19.85;;;;;;;1.44;87.18;94784.47;5060014;28;20230;-82
2023/01/30 11:35:42;;;;;;;32.05;17.67;;;;;;;1.45;86.73;94765.50;5058029;28;20203;-82
2023/01/30 11:38:20;;;;;;;30.08;15.80;;;;;;;1.49;86.15;94777.34;5058010;28;20195;-81
2023/01/30 11:40:47;;;;;;;29.33;16.65;;;;;;;1.50;86.71;94768.66;5057129;28;20294;-81
2023/01/30 11:43:15;;;;;;;25.85;13.23;;;;;;;1.34;85.83;94767.78;5054581;28;20198;-81
2023/01/30 11:45:45;;;;;;;29.77;14.15;;;;;;;1.30;86.65;94763.69;5055329;28;20209;-81